Terminal Aerodrome Forecast
Issued by NWS

Home | Current Version | Previous Version | Text Only | Print | Product List | Glossary On
Versions: 1 2 3 4 5 6 7 8 9 10 11 12 13 14 15 16
000
FTUS42 KMLB 050143 AAA
TAFSFB
TAF AMD
KSFB 050143Z 0502/0524 20004KT P6SM FEW050 SCT120 BKN250
     FM050600 17003KT P6SM FEW120 SCT250
     FM051400 19005KT P6SM SCT025
     FM051900 19008KT P6SM VCTS SCT050CB SCT100 BKN150=

USA.gov is the U.S. government's official web portal to all federal, state and local government web resources and services.